☆ Estación meteorológica Moià.
- Tabla de datos meteorológicos principales.
- Estaciones próximas.
- Gráfica de temperaturas.
- Tabla comparativa 2026 vs. 2025.
- Histórico de datos horarios, desde 01/12/2019 hasta 12/04/2026.
- Ubicación de la estación Moià.
- Acrónimos y términos utilizados.
La estación meteorológica de Moià está próxima al municipio de 'Moià', a una altitud de 742 msnm., y cerca de La Pineda, Moià, El Salgot, Font del Pollancre, El Saiol Comtal, Parc Mare de la Font, Montví de Dalt, Les Illes, El Saiol, Serrat de Montví….
Climatología diaria: Puede consultar el histórico de la climatología diaria en esta estación de Moià, desde el 13 de febrero de 2009 hasta el 8 de abril de 2026 aquí.
Datos más recientes de hoy a las 03 horas: temperatura de 14.3 grados Celsius, humedad relativa del 58% y velocidad del viento de 1.1 m/s (3.96 km/h).
En las últimas 24 horas se registraron los siguientes valores: temperatura máxima de 25.6 grados Celsius, temperatura mínima de 13.4°, temperatura media de 15.88° y no se ha registrado lluvia en el pluviómetro.
Hoy domingo, 12 de abril de 2026, amanecerá en Moià a las 07:14 y anochecerá a las 20:30, por lo que tendremos 13 horas y 15 minutos de luz, con el sol alcanzando su cénit a las 13:52.
Para más detalles puede consultar el tiempo en Moià de este mes y el mes pasado.
Valores meteorológicos de las últimas 24 horas.
| Hora | Precipitación | Temperatura | Humedad | Viento | Dirección | Viento máximo | Dirección viento máximo | Temperatura mínima | Temperatura máxima |
|---|---|---|---|---|---|---|---|---|---|
| 12/04/2026 | |||||||||
| 03:00 | 0,00 | 14,30 | 58,00 | 1,10 | Noroeste 308° | 2,60 | Oeste 260° | 14,30 | 15,00 |
| 02:00 | 0,00 | 15,00 | 49,00 | 1,50 | Noroeste 297° | 3,50 | Noreste 40° | 15,00 | 15,90 |
| 01:00 | 0,00 | 15,80 | 44,00 | 1,40 | Noreste 48° | 3,00 | Norte 5° | 15,10 | 15,80 |
| 00:00 | 0,00 | 15,20 | 56,00 | 0,50 | Norte 22° | 2,50 | Norte 0° | 15,20 | 16,00 |
| 11/04/2026 | |||||||||
| 23:00 | 0,00 | 16,00 | 55,00 | 1,70 | Este 104° | 6,10 | Noreste 42° | 16,00 | 16,40 |
| 22:00 | 0,00 | 16,20 | 41,00 | 2,30 | Norte 17° | 5,00 | Norte 22° | 15,60 | 16,20 |
| 21:00 | 0,00 | 16,10 | 42,00 | 1,60 | Sur 161° | 5,30 | Sur 175° | 16,10 | 18,30 |
| 20:00 | 0,00 | 18,50 | 36,00 | 2,90 | Sureste 123° | 7,30 | Sureste 130° | 18,50 | 19,70 |
| 19:00 | 0,00 | 19,70 | 37,00 | 2,40 | Este 99° | 6,30 | Sureste 147° | 19,70 | 20,70 |
| 18:00 | 0,00 | 21,00 | 33,00 | 2,30 | Sureste 140° | 6,00 | Sureste 137° | 21,00 | 23,00 |
| 17:00 | 0,00 | 2,60 | Sureste 150° | 5,90 | Sureste 157° | ||||
| 16:00 | 0,00 | 24,80 | 31,00 | 3,00 | Sureste 138° | 6,40 | Sureste 150° | 24,80 | 25,60 |
| 15:00 | 0,00 | 25,20 | 23,00 | 1,70 | Suroeste 244° | 4,40 | Oeste 257° | 24,30 | 25,20 |
| 14:00 | 0,00 | 24,70 | 26,00 | 1,90 | Suroeste 244° | 5,60 | Oeste 262° | 23,30 | 24,70 |
| 13:00 | 0,00 | 22,90 | 31,00 | 1,70 | Sur 185° | 7,10 | Oeste 262° | 22,20 | 23,00 |
| 12:00 | 0,00 | 3,20 | Suroeste 245° | 6,10 | Oeste 260° | ||||
| 11:00 | 0,00 | 21,50 | 31,00 | 1,40 | Oeste 253° | 2,80 | Oeste 257° | 19,70 | 21,50 |
| 10:00 | 0,00 | 19,40 | 35,00 | 1,10 | Suroeste 235° | 1,70 | Suroeste 225° | 16,80 | 19,40 |
| 09:00 | 0,00 | 16,60 | 48,00 | 0,20 | Este 73° | 2,40 | Noroeste 320° | 15,50 | 16,60 |
| 08:00 | 0,00 | 15,30 | 39,00 | 0,40 | Noroeste 322° | 2,50 | Noroeste 307° | 13,50 | 15,60 |
| 07:00 | 0,00 | 0,50 | Norte 345° | 1,40 | Norte 7° | ||||
| 06:00 | 0,00 | 13,40 | 50,00 | 0,50 | Noroeste 336° | 1,50 | Norte 357° | 13,40 | 13,70 |
| 05:00 | 0,00 | 13,70 | 46,00 | 0,80 | Norte 343° | 2,50 | Noroeste 312° | 13,70 | 14,90 |
Comparativa con las estaciones próximas.
Las estaciones meteorológicas más cercanas a la de Moià son Balsareny. (a 19,38 km.), Prats de Lluçanès. (a 22,29 km.), Caldes de Montbui. (a 23,12 km.), Manresa. (a 23,57 km.), Fontmartina. (a 28,45 km.), Montserrat. (a 32,32 km.), Sant Hilari. (a 35,42 km.), Berga, Instituto. (a 37,59 km.) y Vilassar de Dalt. (a 40,85 km.). En las siguientes gráficas se dibuja la comparativa de la última semana entre las mediciones de estas estaciones (pintadas en gris) y las de la estación de Moià (coloreada de rojo).
Temperaturas registradas los últimos 7 días.
Comparación con los registros del año 2025.
¿Te preguntas si hacía más calor en Moià hace justo un año? La respuesta es que no, hace un año hacía más frío, concretamente 4.9° menos (14.3° en 2026 y 9.4° en 2025).
Esta tabla compara los valores de las últimas 24 horas con los registrados esa misma fecha, pero justo un año antes. Se marca en negrita el valor mayor de cada comparativa.
| Hora |
|
|
|
|
|
|
| |||||||||||||||||||||||||||||||||||
|---|---|---|---|---|---|---|---|---|---|---|---|---|---|---|---|---|---|---|---|---|---|---|---|---|---|---|---|---|---|---|---|---|---|---|---|---|---|---|---|---|---|---|
| 12/04 | ||||||||||||||||||||||||||||||||||||||||||
| 03:00 | 0,00 | 0,00 | 14,30 | 9,40 | 58,00 | 65,00 | 1,10 | 0,90 | 2,60 | 2,00 | 14,30 | 9,10 | 15,00 | 9,80 | ||||||||||||||||||||||||||||
| 02:00 | 0,00 | 0,00 | 15,00 | 10,10 | 49,00 | 61,00 | 1,50 | 0,20 | 3,50 | 2,40 | 15,00 | 10,10 | 15,90 | 10,90 | ||||||||||||||||||||||||||||
| 01:00 | 0,00 | 0,00 | 15,80 | 10,80 | 44,00 | 56,00 | 1,40 | 1,20 | 3,00 | 5,30 | 15,10 | 10,60 | 15,80 | 10,80 | ||||||||||||||||||||||||||||
| 00:00 | 0,00 | 0,00 | 15,20 | 10,70 | 56,00 | 69,00 | 0,50 | 0,20 | 2,50 | 2,40 | 15,20 | 10,70 | 16,00 | 11,20 | ||||||||||||||||||||||||||||
| 11/04 | ||||||||||||||||||||||||||||||||||||||||||
| 23:00 | 0,00 | 0,00 | 16,00 | 11,20 | 55,00 | 64,00 | 1,70 | 1,00 | 6,10 | 2,70 | 16,00 | 11,20 | 16,40 | 11,40 | ||||||||||||||||||||||||||||
| 22:00 | 0,00 | 0,00 | 16,20 | 11,30 | 41,00 | 71,00 | 2,30 | 0,80 | 5,00 | 3,20 | 15,60 | 11,30 | 16,20 | 12,00 | ||||||||||||||||||||||||||||
| 21:00 | 0,00 | 0,00 | 16,10 | 12,10 | 42,00 | 65,00 | 1,60 | 1,40 | 5,30 | 2,80 | 16,10 | 12,10 | 18,30 | 12,80 | ||||||||||||||||||||||||||||
| 20:00 | 0,00 | 0,00 | 18,50 | 13,00 | 36,00 | 59,00 | 2,90 | 1,70 | 7,30 | 4,70 | 18,50 | 13,00 | 19,70 | 14,50 | ||||||||||||||||||||||||||||
| 19:00 | 0,00 | 0,00 | 19,70 | 14,70 | 37,00 | 60,00 | 2,40 | 2,20 | 6,30 | 4,80 | 19,70 | 14,70 | 20,70 | 15,90 | ||||||||||||||||||||||||||||
| 18:00 | 0,00 | 0,00 | 21,00 | 16,20 | 33,00 | 51,00 | 2,30 | 2,50 | 6,00 | 5,20 | 21,00 | 16,20 | 23,00 | 17,00 | ||||||||||||||||||||||||||||
| 17:00 | 0,00 | 0,00 | 16,90 | 51,00 | 2,60 | 2,10 | 5,90 | 4,40 | 16,60 | 17,00 | ||||||||||||||||||||||||||||||||
| 16:00 | 0,00 | 0,00 | 24,80 | 17,10 | 31,00 | 49,00 | 3,00 | 1,50 | 6,40 | 4,60 | 24,80 | 16,90 | 25,60 | 17,10 | ||||||||||||||||||||||||||||
| 15:00 | 0,00 | 0,00 | 25,20 | 16,80 | 23,00 | 53,00 | 1,70 | 2,20 | 4,40 | 6,00 | 24,30 | 16,70 | 25,20 | 17,80 | ||||||||||||||||||||||||||||
| 14:00 | 0,00 | 0,00 | 24,70 | 17,70 | 26,00 | 51,00 | 1,90 | 2,50 | 5,60 | 4,90 | 23,30 | 16,20 | 24,70 | 17,70 | ||||||||||||||||||||||||||||
| 13:00 | 0,00 | 0,00 | 22,90 | 16,00 | 31,00 | 64,00 | 1,70 | 2,20 | 7,10 | 5,60 | 22,20 | 15,50 | 23,00 | 16,20 | ||||||||||||||||||||||||||||
| 12:00 | 0,00 | 0,00 | 16,40 | 59,00 | 3,20 | 2,50 | 6,10 | 5,10 | 16,00 | 16,40 | ||||||||||||||||||||||||||||||||
| 11:00 | 0,00 | 0,00 | 21,50 | 15,60 | 31,00 | 68,00 | 1,40 | 1,90 | 2,80 | 3,60 | 19,70 | 14,00 | 21,50 | 15,60 | ||||||||||||||||||||||||||||
| 10:00 | 0,00 | 0,00 | 19,40 | 13,60 | 35,00 | 75,00 | 1,10 | 1,30 | 1,70 | 2,30 | 16,80 | 9,70 | 19,40 | 13,60 | ||||||||||||||||||||||||||||
| 09:00 | 0,00 | 0,00 | 16,60 | 9,00 | 48,00 | 95,00 | 0,20 | 0,40 | 2,40 | 1,30 | 15,50 | 8,40 | 16,60 | 9,00 | ||||||||||||||||||||||||||||
| 08:00 | 0,00 | 0,00 | 15,30 | 7,90 | 39,00 | 99,00 | 0,40 | 0,50 | 2,50 | 1,90 | 13,50 | 6,80 | 15,60 | 7,90 | ||||||||||||||||||||||||||||
| 07:00 | 0,00 | 0,00 | 6,90 | 97,00 | 0,50 | 0,90 | 1,40 | 3,70 | 6,90 | 7,20 | ||||||||||||||||||||||||||||||||
| 06:00 | 0,00 | 0,00 | 13,40 | 7,20 | 50,00 | 96,00 | 0,50 | 0,50 | 1,50 | 1,50 | 13,40 | 7,20 | 13,70 | 7,80 | ||||||||||||||||||||||||||||
| 05:00 | 0,00 | 0,00 | 13,70 | 7,80 | 46,00 | 97,00 | 0,80 | 0,10 | 2,50 | 1,70 | 13,70 | 7,80 | 14,90 | 8,50 | ||||||||||||||||||||||||||||
Histórico de datos horarios.
En el historial de x-y.es tenemos almacenados 2264 días con detalle horario publicados por la AEMET para la estación de Moià entre el día 1 de diciembre de 2019 y el 12 de abril de 2026. Desde el siguiente listado puede acceder a los resúmenes mensuales, y de ahí al detalle, por horas, de cada uno de los días disponibles.
- 22 días de diciembre de 2019.
- 28 días de febrero de 2020.
- 31 días de marzo de 2020.
- 30 días de abril de 2020.
- 31 días de mayo de 2020.
- 30 días de junio de 2020.
- 29 días de julio de 2020.
- 31 días de agosto de 2020.
- 30 días de septiembre de 2020.
- 31 días de octubre de 2020.
- 30 días de noviembre de 2020.
- 31 días de diciembre de 2020.
- 27 días de enero de 2021.
- 28 días de febrero de 2021.
- 31 días de marzo de 2021.
- 30 días de abril de 2021.
- 31 días de mayo de 2021.
- 30 días de junio de 2021.
- 31 días de julio de 2021.
- 31 días de agosto de 2021.
- 30 días de septiembre de 2021.
- 31 días de octubre de 2021.
- 30 días de noviembre de 2021.
- 31 días de diciembre de 2021.
- 31 días de enero de 2022.
- 28 días de febrero de 2022.
- 31 días de marzo de 2022.
- 30 días de abril de 2022.
- 31 días de mayo de 2022.
- 30 días de junio de 2022.
- 31 días de julio de 2022.
- 31 días de agosto de 2022.
- 30 días de septiembre de 2022.
- 31 días de octubre de 2022.
- 25 días de noviembre de 2022.
- 31 días de diciembre de 2022.
- 31 días de enero de 2023.
- 28 días de febrero de 2023.
- 31 días de marzo de 2023.
- 30 días de abril de 2023.
- 31 días de mayo de 2023.
- 30 días de junio de 2023.
- 31 días de julio de 2023.
- 31 días de agosto de 2023.
- 30 días de septiembre de 2023.
- 31 días de octubre de 2023.
- 30 días de noviembre de 2023.
- 31 días de diciembre de 2023.
- 31 días de enero de 2024.
- 29 días de febrero de 2024.
- 31 días de marzo de 2024.
- 30 días de abril de 2024.
- 31 días de mayo de 2024.
- 29 días de junio de 2024.
- 31 días de julio de 2024.
- 31 días de agosto de 2024.
- 30 días de septiembre de 2024.
- 31 días de octubre de 2024.
- 30 días de noviembre de 2024.
- 31 días de diciembre de 2024.
- 31 días de enero de 2025.
- 28 días de febrero de 2025.
- 31 días de marzo de 2025.
- 30 días de abril de 2025.
- 31 días de mayo de 2025.
- 30 días de junio de 2025.
- 31 días de julio de 2025.
- 31 días de agosto de 2025.
- 30 días de septiembre de 2025.
- 31 días de octubre de 2025.
- 30 días de noviembre de 2025.
- 31 días de diciembre de 2025.
- 31 días de enero de 2026.
- 20 días de febrero de 2026.
- 31 días de marzo de 2026.
- 12 días de abril de 2026.
Imagen satélite de la posición de la estación.

Notas:
Hora peninsular UTC+2.
Descripción de las columnas:
- Precipitación
- Precipitación acumulada, medida por el pluviómetro, durante los 60 minutos anteriores a la hora indicada por el período de observación (mm, equivalente a l/m2).
- Temperatura
- Temperatura instantánea del aire correspondiente a la fecha dada (grados Celsius).
- Humedad
- Humedad relativa instantánea del aire correspondiente a la fecha dada (%).
- Viento
- Velocidad media del viento, media escalar de las muestras adquiridas cada 0,25 ó 1 segundo en el período de 10 minutos anterior al indicado (m/s).
- Dirección
- Dirección media del viento, en el período de 10 minutos anteriores a la fecha indicada (grados).
- Velocidad máxima del viento
- Valor máximo del viento mantenido 3 segundos y registrado en los 60 minutos anteriores a la hora indicada por el período de observación 'fint' (m/s).
- Dirección del viento máximo
- Registrado en los 60 minutos anteriores a la hora indicada por 'fint' (grados).
- Temperatura mínima del aire
- Valor mínimo de los 60 valores instantáneos de 'ta' medidos en el período de 60 minutos anteriores a la hora indicada por el período de observación 'fint' (grados Celsius).
- Temperatura máxima del aire
- Valor máximo de los 60 valores instantáneos de 'ta' medidos en el período de 60 minutos anteriores a la hora indicada por el período de observación 'fint' (grados Celsius).
* 'fint' indica Fecha hora final del período de observación, se trata de datos del periodo de la hora anterior a la indicada por este campo.
Fuentes:
Datos meteorológicos «© AEMET. Autorizado el uso de la información y su reproducción citando a AEMET como autora de la misma.».
Imágenes de satélite con licencia «OrtoPNOA 2026 CC-BY 4.0 scne.es».
Topónimos administrativos y geográficos «NGBE CC-BY 4.0 ign.es».